Terminal Aerodrome Forecast
Issued by NWS Sioux Falls, SD

Home | Current Version | Previous Version | Text Only | Print | Product List | Glossary On
Versions: 1 2 3 4 5 6 7 8 9 10 11 12 13 14 15 16 17 18 19 20 21 22 23 24 25
000
FTUS43 KFSD 030754 AAA
TAFSUX
TAF AMD
KSUX 030754Z 0308/0406 14011KT P6SM OVC025
     FM031100 13006KT 2SM -FZDZSN OVC009
     FM031500 28012KT 4SM -SN BR OVC015
     FM031800 34025G35KT P6SM BKN030
     FM040000 34013G20KT P6SM BKN120=

USA.gov is the U.S. government's official web portal to all federal, state and local government web resources and services.